sensor_id;sensor_type;location;lat;lon;timestamp;P1;durP1;ratioP1;P2;durP2;ratioP2
16727;SDS011;8482;54.396;18.590;2022-12-29T15:17:22;5.05;;;2.67;;
16727;SDS011;8482;54.396;18.590;2022-12-29T15:19:50;6.38;;;2.97;;
16727;SDS011;8482;54.396;18.590;2022-12-29T15:22:17;7.03;;;3.30;;
16727;SDS011;8482;54.396;18.590;2022-12-29T15:24:43;7.18;;;3.42;;
16727;SDS011;8482;54.396;18.590;2022-12-29T15:27:12;5.63;;;2.70;;
16727;SDS011;8482;54.396;18.590;2022-12-29T15:29:44;6.65;;;3.55;;
16727;SDS011;8482;54.396;18.590;2022-12-29T15:32:27;5.60;;;2.88;;
16727;SDS011;8482;54.396;18.590;2022-12-29T15:35:13;6.50;;;3.45;;
16727;SDS011;8482;54.396;18.590;2022-12-29T15:37:59;7.55;;;3.40;;
16727;SDS011;8482;54.396;18.590;2022-12-29T15:40:39;9.15;;;4.07;;
16727;SDS011;8482;54.396;18.590;2022-12-29T15:45:39;7.93;;;4.40;;
16727;SDS011;8482;54.396;18.590;2022-12-29T15:48:05;7.85;;;3.60;;
16727;SDS011;8482;54.396;18.590;2022-12-29T15:50:43;7.25;;;3.67;;
16727;SDS011;8482;54.396;18.590;2022-12-29T15:53:11;9.02;;;4.00;;
16727;SDS011;8482;54.396;18.590;2022-12-29T15:56:00;8.93;;;4.60;;
16727;SDS011;8482;54.396;18.590;2022-12-29T15:58:45;8.38;;;3.47;;
16727;SDS011;8482;54.396;18.590;2022-12-29T16:01:23;9.10;;;4.35;;
16727;SDS011;8482;54.396;18.590;2022-12-29T16:03:58;7.20;;;3.60;;
16727;SDS011;8482;54.396;18.590;2022-12-29T16:06:38;7.72;;;3.78;;
16727;SDS011;8482;54.396;18.590;2022-12-29T16:09:19;7.30;;;3.50;;
16727;SDS011;8482;54.396;18.590;2022-12-29T16:12:15;7.32;;;3.30;;
16727;SDS011;8482;54.396;18.590;2022-12-29T16:14:51;7.65;;;3.50;;
16727;SDS011;8482;54.396;18.590;2022-12-29T16:17:25;6.05;;;3.00;;
16727;SDS011;8482;54.396;18.590;2022-12-29T16:20:43;8.23;;;3.83;;
16727;SDS011;8482;54.396;18.590;2022-12-29T16:22:56;9.35;;;3.95;;
16727;SDS011;8482;54.396;18.590;2022-12-29T16:25:27;8.93;;;3.65;;
16727;SDS011;8482;54.396;18.590;2022-12-29T16:27:56;8.95;;;3.83;;
16727;SDS011;8482;54.396;18.590;2022-12-29T16:30:26;7.55;;;3.38;;
16727;SDS011;8482;54.396;18.590;2022-12-29T16:32:58;7.03;;;3.20;;
16727;SDS011;8482;54.396;18.590;2022-12-29T16:41:02;7.43;;;3.25;;
16727;SDS011;8482;54.396;18.590;2022-12-29T16:43:37;6.93;;;3.67;;
16727;SDS011;8482;54.396;18.590;2022-12-29T16:48:55;7.63;;;3.63;;
16727;SDS011;8482;54.396;18.590;2022-12-29T16:51:30;7.10;;;3.47;;
16727;SDS011;8482;54.396;18.590;2022-12-29T16:54:01;9.07;;;3.38;;
16727;SDS011;8482;54.396;18.590;2022-12-29T16:56:30;7.18;;;3.22;;
16727;SDS011;8482;54.396;18.590;2022-12-29T16:59:07;6.50;;;3.00;;
16727;SDS011;8482;54.396;18.590;2022-12-29T17:01:54;7.40;;;3.15;;
16727;SDS011;8482;54.396;18.590;2022-12-29T17:04:21;6.38;;;2.95;;
16727;SDS011;8482;54.396;18.590;2022-12-29T17:06:47;6.75;;;3.13;;
16727;SDS011;8482;54.396;18.590;2022-12-29T17:09:23;5.55;;;2.70;;
16727;SDS011;8482;54.396;18.590;2022-12-29T17:11:52;6.00;;;3.45;;
16727;SDS011;8482;54.396;18.590;2022-12-29T17:14:30;4.55;;;2.33;;
16727;SDS011;8482;54.396;18.590;2022-12-29T17:22:53;5.20;;;2.10;;
16727;SDS011;8482;54.396;18.590;2022-12-29T17:25:21;4.78;;;2.20;;
16727;SDS011;8482;54.396;18.590;2022-12-29T17:28:03;6.95;;;3.75;;
16727;SDS011;8482;54.396;18.590;2022-12-29T17:30:36;4.25;;;1.73;;
16727;SDS011;8482;54.396;18.590;2022-12-29T17:33:05;4.95;;;2.17;;
16727;SDS011;8482;54.396;18.590;2022-12-29T17:35:38;5.82;;;2.13;;
16727;SDS011;8482;54.396;18.590;2022-12-29T17:38:14;5.00;;;2.10;;
16727;SDS011;8482;54.396;18.590;2022-12-29T17:40:52;4.88;;;2.63;;
16727;SDS011;8482;54.396;18.590;2022-12-29T17:43:19;5.85;;;2.25;;
16727;SDS011;8482;54.396;18.590;2022-12-29T17:45:51;6.88;;;2.80;;
16727;SDS011;8482;54.396;18.590;2022-12-29T17:48:20;5.20;;;2.60;;
16727;SDS011;8482;54.396;18.590;2022-12-29T17:50:47;6.47;;;3.08;;
16727;SDS011;8482;54.396;18.590;2022-12-29T17:53:18;7.55;;;3.67;;
16727;SDS011;8482;54.396;18.590;2022-12-29T17:55:48;6.72;;;3.13;;
16727;SDS011;8482;54.396;18.590;2022-12-29T17:58:15;5.90;;;2.92;;
16727;SDS011;8482;54.396;18.590;2022-12-29T18:00:44;6.90;;;2.90;;
16727;SDS011;8482;54.396;18.590;2022-12-29T18:03:18;5.88;;;3.22;;
16727;SDS011;8482;54.396;18.590;2022-12-29T18:05:52;6.30;;;2.80;;
16727;SDS011;8482;54.396;18.590;2022-12-29T18:08:18;6.15;;;2.70;;
16727;SDS011;8482;54.396;18.590;2022-12-29T18:10:44;6.97;;;3.33;;
16727;SDS011;8482;54.396;18.590;2022-12-29T18:13:20;6.75;;;2.70;;
16727;SDS011;8482;54.396;18.590;2022-12-29T18:15:55;7.78;;;3.03;;
16727;SDS011;8482;54.396;18.590;2022-12-29T18:18:23;4.90;;;2.55;;
16727;SDS011;8482;54.396;18.590;2022-12-29T18:20:52;6.45;;;2.92;;
16727;SDS011;8482;54.396;18.590;2022-12-29T18:23:23;5.88;;;3.10;;
16727;SDS011;8482;54.396;18.590;2022-12-29T18:26:02;5.85;;;2.85;;
16727;SDS011;8482;54.396;18.590;2022-12-29T18:28:35;6.85;;;3.20;;
16727;SDS011;8482;54.396;18.590;2022-12-29T18:31:01;6.50;;;3.00;;
16727;SDS011;8482;54.396;18.590;2022-12-29T18:33:27;5.15;;;2.65;;
16727;SDS011;8482;54.396;18.590;2022-12-29T18:36:01;5.32;;;2.40;;
16727;SDS011;8482;54.396;18.590;2022-12-29T18:38:29;6.35;;;3.10;;
16727;SDS011;8482;54.396;18.590;2022-12-29T18:40:56;6.57;;;3.03;;
16727;SDS011;8482;54.396;18.590;2022-12-29T18:43:24;4.95;;;2.60;;
16727;SDS011;8482;54.396;18.590;2022-12-29T18:45:50;6.03;;;2.78;;
16727;SDS011;8482;54.396;18.590;2022-12-29T18:48:16;4.78;;;2.50;;
16727;SDS011;8482;54.396;18.590;2022-12-29T18:50:44;5.95;;;3.00;;
16727;SDS011;8482;54.396;18.590;2022-12-29T18:53:16;4.80;;;2.28;;
16727;SDS011;8482;54.396;18.590;2022-12-29T18:55:45;4.65;;;2.30;;
16727;SDS011;8482;54.396;18.590;2022-12-29T18:58:11;6.60;;;2.78;;
16727;SDS011;8482;54.396;18.590;2022-12-29T19:00:37;5.25;;;2.40;;
16727;SDS011;8482;54.396;18.590;2022-12-29T19:03:03;4.35;;;2.20;;
16727;SDS011;8482;54.396;18.590;2022-12-29T19:05:33;4.88;;;2.20;;
16727;SDS011;8482;54.396;18.590;2022-12-29T19:08:03;4.55;;;2.20;;
16727;SDS011;8482;54.396;18.590;2022-12-29T19:10:31;5.75;;;2.92;;
16727;SDS011;8482;54.396;18.590;2022-12-29T19:12:58;6.88;;;3.17;;
16727;SDS011;8482;54.396;18.590;2022-12-29T19:15:29;6.20;;;3.20;;
16727;SDS011;8482;54.396;18.590;2022-12-29T19:17:58;6.70;;;2.83;;
16727;SDS011;8482;54.396;18.590;2022-12-29T19:20:28;6.25;;;2.40;;
16727;SDS011;8482;54.396;18.590;2022-12-29T19:23:01;6.82;;;2.90;;
16727;SDS011;8482;54.396;18.590;2022-12-29T19:25:31;4.70;;;2.60;;
16727;SDS011;8482;54.396;18.590;2022-12-29T19:27:57;5.15;;;2.50;;
16727;SDS011;8482;54.396;18.590;2022-12-29T19:30:25;5.85;;;2.97;;
16727;SDS011;8482;54.396;18.590;2022-12-29T19:32:53;4.72;;;2.75;;
16727;SDS011;8482;54.396;18.590;2022-12-29T19:35:24;7.32;;;3.20;;
16727;SDS011;8482;54.396;18.590;2022-12-29T19:37:53;5.20;;;2.40;;
16727;SDS011;8482;54.396;18.590;2022-12-29T19:40:21;5.95;;;2.97;;
16727;SDS011;8482;54.396;18.590;2022-12-29T19:42:49;4.88;;;2.40;;
16727;SDS011;8482;54.396;18.590;2022-12-29T19:45:15;5.28;;;2.30;;
16727;SDS011;8482;54.396;18.590;2022-12-29T19:47:42;4.82;;;2.33;;
16727;SDS011;8482;54.396;18.590;2022-12-29T19:50:09;5.65;;;2.58;;
16727;SDS011;8482;54.396;18.590;2022-12-29T19:52:39;5.18;;;2.50;;
16727;SDS011;8482;54.396;18.590;2022-12-29T19:55:05;5.10;;;2.45;;
16727;SDS011;8482;54.396;18.590;2022-12-29T19:57:33;4.78;;;2.40;;
16727;SDS011;8482;54.396;18.590;2022-12-29T19:59:59;5.10;;;2.20;;
16727;SDS011;8482;54.396;18.590;2022-12-29T20:02:26;4.10;;;2.20;;
16727;SDS011;8482;54.396;18.590;2022-12-29T20:04:55;5.32;;;2.10;;
16727;SDS011;8482;54.396;18.590;2022-12-29T20:07:22;4.72;;;2.15;;
16727;SDS011;8482;54.396;18.590;2022-12-29T20:09:49;5.78;;;2.58;;
16727;SDS011;8482;54.396;18.590;2022-12-29T20:12:15;5.07;;;2.40;;
16727;SDS011;8482;54.396;18.590;2022-12-29T20:14:42;3.75;;;2.00;;
16727;SDS011;8482;54.396;18.590;2022-12-29T20:17:10;4.55;;;1.98;;
16727;SDS011;8482;54.396;18.590;2022-12-29T20:19:39;4.90;;;2.72;;
16727;SDS011;8482;54.396;18.590;2022-12-29T20:22:08;7.15;;;2.75;;
16727;SDS011;8482;54.396;18.590;2022-12-29T20:24:36;4.32;;;1.95;;
16727;SDS011;8482;54.396;18.590;2022-12-29T20:27:04;4.30;;;2.00;;
16727;SDS011;8482;54.396;18.590;2022-12-29T20:29:37;4.00;;;1.92;;
16727;SDS011;8482;54.396;18.590;2022-12-29T20:32:08;4.28;;;1.98;;
16727;SDS011;8482;54.396;18.590;2022-12-29T20:34:39;4.97;;;2.38;;
16727;SDS011;8482;54.396;18.590;2022-12-29T20:37:06;5.03;;;2.25;;
16727;SDS011;8482;54.396;18.590;2022-12-29T20:39:33;4.55;;;2.38;;
16727;SDS011;8482;54.396;18.590;2022-12-29T20:42:01;4.88;;;2.00;;
16727;SDS011;8482;54.396;18.590;2022-12-29T20:44:28;7.00;;;2.13;;
16727;SDS011;8482;54.396;18.590;2022-12-29T20:46:56;4.03;;;2.08;;
16727;SDS011;8482;54.396;18.590;2022-12-29T20:49:23;4.68;;;2.08;;
16727;SDS011;8482;54.396;18.590;2022-12-29T20:51:50;4.18;;;1.80;;
16727;SDS011;8482;54.396;18.590;2022-12-29T20:54:16;4.30;;;1.88;;
16727;SDS011;8482;54.396;18.590;2022-12-29T20:56:43;4.82;;;2.10;;
16727;SDS011;8482;54.396;18.590;2022-12-29T20:59:10;4.63;;;2.25;;
16727;SDS011;8482;54.396;18.590;2022-12-29T21:01:37;4.68;;;1.75;;
16727;SDS011;8482;54.396;18.590;2022-12-29T21:04:04;4.47;;;1.73;;
16727;SDS011;8482;54.396;18.590;2022-12-29T21:06:32;3.65;;;1.70;;
16727;SDS011;8482;54.396;18.590;2022-12-29T21:08:58;5.35;;;2.20;;
16727;SDS011;8482;54.396;18.590;2022-12-29T21:11:25;4.95;;;1.90;;
16727;SDS011;8482;54.396;18.590;2022-12-29T21:13:51;4.53;;;1.73;;
16727;SDS011;8482;54.396;18.590;2022-12-29T21:16:18;3.13;;;1.40;;
16727;SDS011;8482;54.396;18.590;2022-12-29T21:18:45;4.72;;;1.80;;
16727;SDS011;8482;54.396;18.590;2022-12-29T21:21:20;3.13;;;1.52;;
16727;SDS011;8482;54.396;18.590;2022-12-29T21:23:48;4.95;;;2.00;;
16727;SDS011;8482;54.396;18.590;2022-12-29T21:26:17;3.88;;;1.52;;
16727;SDS011;8482;54.396;18.590;2022-12-29T21:28:46;3.10;;;1.48;;
16727;SDS011;8482;54.396;18.590;2022-12-29T21:33:48;2.95;;;1.45;;
16727;SDS011;8482;54.396;18.590;2022-12-29T21:36:15;2.72;;;1.52;;
16727;SDS011;8482;54.396;18.590;2022-12-29T21:38:40;3.45;;;1.40;;
16727;SDS011;8482;54.396;18.590;2022-12-29T21:41:07;5.28;;;2.00;;
16727;SDS011;8482;54.396;18.590;2022-12-29T21:43:37;3.13;;;1.65;;
16727;SDS011;8482;54.396;18.590;2022-12-29T21:46:03;3.03;;;1.70;;
16727;SDS011;8482;54.396;18.590;2022-12-29T21:48:30;4.28;;;1.88;;
16727;SDS011;8482;54.396;18.590;2022-12-29T21:51:07;2.97;;;1.60;;
16727;SDS011;8482;54.396;18.590;2022-12-29T21:53:56;3.10;;;1.70;;
16727;SDS011;8482;54.396;18.590;2022-12-29T21:56:44;4.82;;;2.17;;
16727;SDS011;8482;54.396;18.590;2022-12-29T21:59:12;2.72;;;1.50;;
16727;SDS011;8482;54.396;18.590;2022-12-29T22:01:59;3.30;;;1.70;;
16727;SDS011;8482;54.396;18.590;2022-12-29T22:04:46;4.25;;;1.90;;
16727;SDS011;8482;54.396;18.590;2022-12-29T22:07:31;5.00;;;1.70;;
16727;SDS011;8482;54.396;18.590;2022-12-29T22:10:15;4.13;;;1.38;;
16727;SDS011;8482;54.396;18.590;2022-12-29T22:13:00;4.25;;;2.10;;
16727;SDS011;8482;54.396;18.590;2022-12-29T22:15:28;4.28;;;1.90;;
16727;SDS011;8482;54.396;18.590;2022-12-29T22:18:01;3.40;;;1.75;;
16727;SDS011;8482;54.396;18.590;2022-12-29T22:20:29;5.38;;;1.90;;
16727;SDS011;8482;54.396;18.590;2022-12-29T22:22:58;3.28;;;1.90;;
16727;SDS011;8482;54.396;18.590;2022-12-29T22:25:26;4.32;;;2.20;;
16727;SDS011;8482;54.396;18.590;2022-12-29T22:27:52;4.15;;;1.70;;
16727;SDS011;8482;54.396;18.590;2022-12-29T22:30:18;3.00;;;1.67;;
16727;SDS011;8482;54.396;18.590;2022-12-29T22:32:44;4.13;;;1.85;;
16727;SDS011;8482;54.396;18.590;2022-12-29T22:35:10;4.70;;;1.67;;
16727;SDS011;8482;54.396;18.590;2022-12-29T22:37:38;3.42;;;1.70;;
16727;SDS011;8482;54.396;18.590;2022-12-29T22:40:06;3.47;;;1.30;;
16727;SDS011;8482;54.396;18.590;2022-12-29T22:42:34;4.45;;;1.70;;
16727;SDS011;8482;54.396;18.590;2022-12-29T22:45:01;4.18;;;1.60;;
16727;SDS011;8482;54.396;18.590;2022-12-29T22:47:27;4.18;;;1.70;;
16727;SDS011;8482;54.396;18.590;2022-12-29T22:49:53;4.25;;;2.20;;
16727;SDS011;8482;54.396;18.590;2022-12-29T22:52:19;3.05;;;1.50;;
16727;SDS011;8482;54.396;18.590;2022-12-29T22:54:45;3.83;;;1.60;;
16727;SDS011;8482;54.396;18.590;2022-12-29T22:57:10;4.55;;;2.00;;
16727;SDS011;8482;54.396;18.590;2022-12-29T22:59:36;3.08;;;1.73;;
16727;SDS011;8482;54.396;18.590;2022-12-29T23:02:04;4.43;;;1.67;;
16727;SDS011;8482;54.396;18.590;2022-12-29T23:04:30;4.38;;;1.95;;
16727;SDS011;8482;54.396;18.590;2022-12-29T23:06:56;3.38;;;1.60;;
16727;SDS011;8482;54.396;18.590;2022-12-29T23:09:22;6.25;;;1.80;;
16727;SDS011;8482;54.396;18.590;2022-12-29T23:11:48;3.22;;;1.50;;
16727;SDS011;8482;54.396;18.590;2022-12-29T23:14:14;4.70;;;2.10;;
16727;SDS011;8482;54.396;18.590;2022-12-29T23:16:41;3.10;;;1.60;;
16727;SDS011;8482;54.396;18.590;2022-12-29T23:19:09;5.13;;;1.45;;
